createdAt,value
2022-09-12T00:01:47.411Z,93.54
2022-09-12T00:04:13.728Z,93.69
2022-09-12T00:06:40.059Z,93.80
2022-09-12T00:09:09.459Z,93.75
2022-09-12T00:11:40.800Z,93.90
2022-09-12T00:14:08.471Z,93.79
2022-09-12T00:16:36.872Z,93.66
2022-09-12T00:19:05.087Z,93.57
2022-09-12T00:21:33.899Z,93.83
2022-09-12T00:24:00.283Z,93.78
2022-09-12T00:26:26.849Z,93.74
2022-09-12T00:28:53.164Z,93.65
2022-09-12T00:31:23.378Z,93.78
2022-09-12T00:33:50.011Z,94.06
2022-09-12T00:36:22.143Z,94.00
2022-09-12T00:38:49.271Z,93.93
2022-09-12T00:41:28.484Z,93.80
2022-09-12T00:43:58.148Z,93.60
2022-09-12T00:46:44.649Z,93.99
2022-09-12T00:49:15.873Z,94.38
2022-09-12T00:51:49.468Z,94.42
2022-09-12T00:54:25.350Z,94.26
2022-09-12T00:56:54.774Z,94.40
2022-09-12T00:59:29.300Z,94.42
2022-09-12T01:01:56.295Z,94.82
2022-09-12T01:04:27.050Z,94.85
2022-09-12T01:06:56.004Z,94.71
2022-09-12T01:09:23.438Z,94.76
2022-09-12T01:11:51.595Z,94.97
2022-09-12T01:14:18.807Z,94.56
2022-09-12T01:16:46.875Z,94.01
2022-09-12T01:19:50.751Z,94.14
2022-09-12T01:22:47.879Z,94.67
2022-09-12T01:25:28.499Z,94.63
2022-09-12T01:28:28.841Z,94.22
2022-09-12T01:31:17.852Z,94.44
2022-09-12T01:33:56.584Z,94.59
2022-09-12T01:36:47.980Z,94.77
2022-09-12T01:39:38.609Z,94.66
2022-09-12T01:42:18.389Z,94.80
2022-09-12T01:45:11.415Z,94.99
2022-09-12T01:47:43.572Z,95.13
2022-09-12T01:50:24.650Z,94.78
2022-09-12T01:53:00.327Z,94.97
2022-09-12T01:55:36.923Z,94.95
2022-09-12T01:58:26.221Z,95.06
2022-09-12T02:01:05.823Z,95.39
2022-09-12T02:04:01.088Z,95.40
2022-09-12T02:06:36.435Z,95.31
2022-09-12T02:09:08.897Z,95.31
2022-09-12T02:11:40.975Z,95.00
2022-09-12T02:14:12.514Z,94.77
2022-09-12T02:16:51.608Z,94.43
2022-09-12T02:19:28.705Z,94.88
2022-09-12T02:22:01.362Z,94.99
2022-09-12T02:24:31.651Z,94.98
2022-09-12T02:27:04.867Z,94.93
2022-09-12T02:29:31.294Z,94.80
2022-09-12T02:32:01.487Z,95.13
2022-09-12T02:34:39.619Z,95.17
2022-09-12T02:37:14.927Z,95.38
2022-09-12T02:39:45.115Z,95.45
2022-09-12T02:42:12.250Z,94.94
2022-09-12T02:44:38.750Z,94.59
2022-09-12T02:47:10.567Z,94.32
2022-09-12T02:49:37.055Z,94.27
2022-09-12T02:52:03.870Z,94.60
2022-09-12T02:54:31.021Z,95.10
2022-09-12T02:56:57.424Z,94.68
2022-09-12T02:59:24.882Z,95.12
2022-09-12T03:02:15.237Z,94.99
2022-09-12T03:04:59.802Z,94.87
2022-09-12T03:08:03.186Z,94.82
2022-09-12T03:10:38.411Z,95.15
2022-09-12T03:13:28.862Z,94.98
2022-09-12T03:16:40.266Z,94.69
2022-09-12T03:19:38.735Z,95.00
2022-09-12T03:22:16.544Z,95.05
2022-09-12T03:25:02.967Z,95.19
2022-09-12T03:27:41.326Z,95.26
2022-09-12T03:30:08.519Z,95.35
2022-09-12T03:32:47.087Z,95.18
2022-09-12T03:35:14.943Z,95.30
2022-09-12T03:37:41.420Z,95.19
2022-09-12T03:40:09.780Z,95.01
2022-09-12T03:42:36.135Z,95.13
2022-09-12T03:45:02.466Z,94.83
2022-09-12T03:47:28.782Z,94.96
2022-09-12T03:49:55.090Z,94.91
2022-09-12T03:52:21.384Z,95.00
2022-09-12T03:54:47.666Z,95.11
2022-09-12T03:57:13.989Z,95.06
2022-09-12T03:59:40.436Z,95.33
2022-09-12T04:02:06.835Z,95.32
2022-09-12T04:04:33.190Z,95.41
2022-09-12T04:06:59.470Z,95.36
2022-09-12T04:09:25.848Z,95.42
2022-09-12T04:11:52.133Z,95.38
2022-09-12T04:14:18.466Z,95.28
2022-09-12T04:16:44.839Z,95.12
2022-09-12T04:19:12.082Z,95.11
2022-09-12T04:21:38.382Z,95.61
2022-09-12T04:24:04.946Z,95.68
2022-09-12T04:26:31.306Z,95.81
2022-09-12T04:28:58.141Z,95.82
2022-09-12T04:31:25.573Z,96.05
2022-09-12T04:33:57.507Z,95.73
2022-09-12T04:36:24.788Z,95.61
2022-09-12T04:38:52.018Z,95.43
2022-09-12T04:41:25.673Z,95.20
2022-09-12T04:43:54.569Z,95.12
2022-09-12T04:46:21.345Z,95.46
2022-09-12T04:48:50.515Z,95.60
2022-09-12T04:51:22.517Z,95.39
2022-09-12T04:53:51.545Z,95.64
2022-09-12T04:56:19.703Z,95.53
2022-09-12T04:58:46.471Z,95.80
2022-09-12T05:01:18.439Z,95.62
2022-09-12T05:03:46.515Z,95.39
2022-09-12T05:06:16.822Z,95.08
2022-09-12T05:08:43.462Z,95.35
2022-09-12T05:11:22.730Z,95.42
2022-09-12T05:13:50.983Z,95.42
2022-09-12T05:16:18.714Z,95.56
2022-09-12T05:18:45.810Z,95.48
2022-09-12T05:21:14.088Z,95.37
2022-09-12T05:23:41.000Z,95.38
2022-09-12T05:26:08.371Z,95.25
2022-09-12T05:28:36.880Z,95.08
2022-09-12T05:31:07.477Z,94.78
2022-09-12T05:33:37.710Z,94.45
2022-09-12T05:36:06.305Z,94.39
2022-09-12T05:38:35.161Z,93.88
2022-09-12T05:41:25.120Z,93.64
2022-09-12T05:43:56.380Z,93.43
2022-09-12T05:46:26.089Z,93.46
2022-09-12T05:48:56.121Z,93.01
2022-09-12T05:51:28.271Z,93.04
2022-09-12T05:53:59.846Z,92.93
2022-09-12T05:56:28.841Z,92.84
2022-09-12T05:59:04.102Z,92.88
2022-09-12T06:01:32.170Z,92.71
2022-09-12T06:04:01.172Z,92.47
2022-09-12T06:06:29.044Z,91.71
2022-09-12T06:09:00.554Z,90.88
2022-09-12T06:11:29.507Z,89.49
2022-09-12T06:13:57.967Z,87.31
2022-09-12T06:16:27.604Z,84.70
2022-09-12T06:18:56.419Z,83.47
2022-09-12T06:21:24.397Z,83.30
2022-09-12T06:23:51.105Z,81.74
2022-09-12T06:26:18.488Z,79.94
2022-09-12T06:28:45.196Z,79.91
2022-09-12T06:31:18.090Z,80.24
2022-09-12T06:33:46.996Z,78.96
2022-09-12T06:36:20.111Z,79.13
2022-09-12T06:38:46.955Z,79.90
2022-09-12T06:41:13.492Z,79.41
2022-09-12T06:43:41.640Z,77.67
2022-09-12T06:46:09.295Z,78.10
2022-09-12T06:48:40.986Z,78.42
2022-09-12T06:51:13.634Z,76.46
2022-09-12T06:53:40.885Z,77.15
2022-09-12T06:56:10.773Z,77.31
2022-09-12T06:58:37.918Z,77.71
2022-09-12T07:01:08.982Z,76.85
2022-09-12T07:03:36.279Z,76.24
2022-09-12T07:06:10.747Z,74.58
2022-09-12T07:08:38.498Z,75.20
2022-09-12T07:11:20.601Z,75.09
2022-09-12T07:13:49.528Z,75.89
2022-09-12T07:16:19.620Z,75.62
2022-09-12T07:18:51.745Z,75.08
2022-09-12T07:21:18.546Z,74.10
2022-09-12T07:23:45.010Z,73.67
2022-09-12T07:26:13.121Z,73.49
2022-09-12T07:28:40.103Z,72.87
2022-09-12T07:31:10.733Z,72.11
2022-09-12T07:33:37.707Z,72.16
2022-09-12T07:36:06.802Z,71.50
2022-09-12T07:38:33.202Z,71.50
2022-09-12T07:40:59.542Z,70.50
2022-09-12T07:43:25.817Z,70.05
2022-09-12T07:45:58.462Z,70.20
2022-09-12T07:48:24.810Z,69.42
2022-09-12T07:51:01.320Z,69.23
2022-09-12T07:53:32.725Z,69.82
2022-09-12T07:55:59.018Z,69.76
2022-09-12T07:58:25.471Z,68.96
2022-09-12T08:00:51.762Z,67.71
2022-09-12T08:03:18.125Z,68.11
2022-09-12T08:05:44.596Z,67.66
2022-09-12T08:08:10.904Z,66.92
2022-09-12T08:10:37.272Z,66.51
2022-09-12T08:13:03.938Z,65.88
2022-09-12T08:15:30.338Z,65.51
2022-09-12T08:17:56.805Z,64.68
2022-09-12T08:20:27.701Z,63.78
2022-09-12T08:22:54.642Z,62.44
2022-09-12T08:25:20.940Z,61.48
2022-09-12T08:27:47.209Z,61.88
2022-09-12T08:30:14.043Z,62.51
2022-09-12T08:32:40.352Z,63.55
2022-09-12T08:35:06.904Z,64.17
2022-09-12T08:37:33.211Z,63.31
2022-09-12T08:39:59.576Z,63.07
2022-09-12T08:42:43.923Z,61.83
2022-09-12T08:45:20.238Z,62.61
2022-09-12T08:47:47.422Z,62.63
2022-09-12T08:50:18.483Z,61.98
2022-09-12T08:53:06.182Z,62.59
2022-09-12T08:55:38.478Z,61.20
2022-09-12T08:58:13.635Z,61.96
2022-09-12T09:01:10.849Z,61.88
2022-09-12T09:03:49.572Z,61.22
2022-09-12T09:06:50.184Z,61.62
2022-09-12T09:09:24.879Z,60.94
2022-09-12T09:12:20.259Z,60.62
2022-09-12T09:15:06.342Z,59.65
2022-09-12T09:17:45.382Z,60.49
2022-09-12T09:20:28.615Z,61.18
2022-09-12T09:23:07.822Z,61.01
2022-09-12T09:25:47.383Z,59.61
2022-09-12T09:28:21.836Z,60.04
2022-09-12T09:30:48.462Z,59.01
2022-09-12T09:33:23.828Z,58.15
2022-09-12T09:36:03.156Z,57.57
2022-09-12T09:38:47.019Z,57.47
2022-09-12T09:41:41.927Z,57.23
2022-09-12T09:46:39.785Z,57.58
2022-09-12T09:49:07.454Z,57.61
2022-09-12T09:51:40.262Z,57.55
2022-09-12T09:54:24.301Z,57.38
2022-09-12T09:56:50.929Z,56.56
2022-09-12T09:59:30.842Z,55.85
2022-09-12T10:02:12.506Z,56.52
2022-09-12T10:04:57.004Z,57.00
2022-09-12T10:07:24.967Z,56.27
2022-09-12T10:10:14.877Z,56.43
2022-09-12T10:12:41.708Z,56.39
2022-09-12T10:15:17.190Z,56.04
2022-09-12T10:17:46.044Z,55.33
2022-09-12T10:20:38.754Z,54.54
2022-09-12T10:23:33.968Z,55.03
2022-09-12T10:26:02.502Z,54.83
2022-09-12T10:28:34.510Z,53.93
2022-09-12T10:31:00.911Z,55.08
2022-09-12T10:33:27.630Z,53.44
2022-09-12T10:35:55.075Z,53.00
2022-09-12T10:38:25.694Z,54.18
2022-09-12T10:40:58.966Z,54.48
2022-09-12T10:43:25.203Z,54.48
2022-09-12T10:45:51.555Z,54.21
2022-09-12T10:48:30.992Z,54.59
2022-09-12T10:51:01.363Z,54.29
2022-09-12T10:53:34.485Z,53.68
2022-09-12T10:56:09.277Z,54.13
2022-09-12T10:59:06.246Z,55.20
2022-09-12T11:01:32.615Z,55.21
2022-09-12T11:04:20.292Z,55.17
2022-09-12T11:07:08.352Z,55.28
2022-09-12T11:09:52.420Z,54.50
2022-09-12T11:12:39.264Z,55.26
2022-09-12T11:15:11.535Z,54.64
2022-09-12T11:17:46.913Z,54.36
2022-09-12T11:20:19.136Z,54.56
2022-09-12T11:23:33.097Z,53.67
2022-09-12T11:26:34.195Z,54.00
2022-09-12T11:29:16.755Z,53.35
2022-09-12T11:32:04.591Z,53.44
2022-09-12T11:35:17.450Z,52.75
2022-09-12T11:38:08.177Z,53.36
2022-09-12T11:40:48.201Z,54.09
2022-09-12T11:43:29.812Z,54.71
2022-09-12T11:46:02.487Z,52.60
2022-09-12T11:48:44.142Z,51.25
2022-09-12T11:51:43.959Z,51.53
2022-09-12T11:54:39.700Z,50.79
2022-09-12T11:57:16.659Z,51.82
2022-09-12T12:00:14.188Z,52.70
2022-09-12T12:03:16.342Z,51.37
2022-09-12T12:05:55.180Z,49.30
2022-09-12T12:08:23.870Z,47.17
2022-09-12T12:10:59.016Z,48.53
2022-09-12T12:13:33.042Z,46.66
2022-09-12T12:16:04.541Z,45.74
2022-09-12T12:18:33.158Z,47.37
2022-09-12T12:21:39.849Z,46.86
2022-09-12T12:24:08.902Z,45.87
2022-09-12T12:26:41.059Z,47.72
2022-09-12T12:29:51.413Z,46.30
2022-09-12T12:32:17.644Z,45.37
2022-09-12T12:34:45.301Z,46.69
2022-09-12T12:37:20.609Z,46.16
2022-09-12T12:39:46.968Z,44.58
2022-09-12T12:42:34.959Z,46.07
2022-09-12T12:45:26.358Z,45.63
2022-09-12T12:47:57.322Z,45.56
2022-09-12T12:50:26.918Z,46.24
2022-09-12T12:52:59.876Z,46.14
2022-09-12T12:55:58.447Z,45.37
2022-09-12T12:58:39.237Z,45.35
2022-09-12T13:01:18.153Z,45.64
2022-09-12T13:03:52.585Z,44.62
2022-09-12T13:06:37.479Z,44.06
2022-09-12T13:09:24.418Z,43.68
2022-09-12T13:12:04.998Z,44.85
2022-09-12T13:14:43.194Z,46.77
2022-09-12T13:17:46.107Z,46.83
2022-09-12T13:20:27.169Z,44.60
2022-09-12T13:22:54.588Z,44.58
2022-09-12T13:25:23.322Z,45.08
2022-09-12T13:28:05.055Z,44.37
2022-09-12T13:30:37.774Z,44.43
2022-09-12T13:33:28.811Z,44.00
2022-09-12T13:36:25.580Z,45.56
2022-09-12T13:39:13.731Z,45.22
2022-09-12T13:42:10.811Z,44.79
2022-09-12T13:44:45.561Z,43.57
2022-09-12T13:47:27.691Z,44.62
2022-09-12T13:49:55.267Z,45.50
2022-09-12T13:52:29.552Z,44.23
2022-09-12T13:54:58.031Z,44.40
2022-09-12T13:57:30.739Z,44.35
2022-09-12T13:59:58.755Z,44.57
2022-09-12T14:02:27.912Z,43.49
2022-09-12T14:04:55.508Z,43.41
2022-09-12T14:07:25.530Z,44.33
2022-09-12T14:09:58.127Z,43.13
2022-09-12T14:12:40.319Z,44.24
2022-09-12T14:15:15.662Z,43.96
2022-09-12T14:17:49.370Z,43.25
2022-09-12T14:20:16.130Z,43.32
2022-09-12T14:22:42.691Z,42.95
2022-09-12T14:25:17.687Z,43.09
2022-09-12T14:27:48.616Z,42.12
2022-09-12T14:30:29.847Z,43.13
2022-09-12T14:33:11.498Z,44.08
2022-09-12T14:35:43.736Z,44.24
2022-09-12T14:38:16.062Z,43.32
2022-09-12T14:40:45.911Z,44.30
2022-09-12T14:43:24.924Z,43.32
2022-09-12T14:46:18.778Z,42.22
2022-09-12T14:48:56.179Z,43.65
2022-09-12T14:51:27.762Z,45.16
2022-09-12T14:53:54.499Z,42.99
2022-09-12T14:56:22.324Z,44.02
2022-09-12T14:58:48.787Z,44.43
2022-09-12T15:01:15.118Z,43.71
2022-09-12T15:03:52.185Z,43.64
2022-09-12T15:06:27.806Z,43.62
2022-09-12T15:08:55.811Z,44.14
2022-09-12T15:11:22.331Z,42.52
2022-09-12T15:13:48.919Z,43.72
2022-09-12T15:16:15.751Z,43.90
2022-09-12T15:18:42.944Z,44.95
2022-09-12T15:21:13.820Z,44.69
2022-09-12T15:23:44.453Z,45.16
2022-09-12T15:26:14.493Z,44.61
2022-09-12T15:28:40.872Z,44.20
2022-09-12T15:31:13.357Z,44.81
2022-09-12T15:33:39.785Z,44.06
2022-09-12T15:36:13.679Z,44.25
2022-09-12T15:38:39.963Z,44.24
2022-09-12T15:41:11.282Z,44.30
2022-09-12T15:43:37.590Z,44.71
2022-09-12T15:46:03.947Z,45.25
2022-09-12T15:48:30.250Z,46.00
2022-09-12T15:50:57.574Z,46.07
2022-09-12T15:53:23.868Z,46.79
2022-09-12T15:55:50.142Z,46.94
2022-09-12T15:58:16.439Z,47.15
2022-09-12T16:00:42.747Z,47.11
2022-09-12T16:03:29.090Z,47.46
2022-09-12T16:05:57.878Z,47.15
2022-09-12T16:08:24.804Z,47.37
2022-09-12T16:10:55.780Z,47.66
2022-09-12T16:13:23.299Z,47.86
2022-09-12T16:15:50.015Z,47.82
2022-09-12T16:18:16.450Z,47.92
2022-09-12T16:20:43.066Z,47.64
2022-09-12T16:23:11.880Z,48.06
2022-09-12T16:25:39.120Z,47.38
2022-09-12T16:28:06.206Z,49.14
2022-09-12T16:30:33.401Z,48.63
2022-09-12T16:32:59.745Z,49.30
2022-09-12T16:35:26.047Z,50.22
2022-09-12T16:37:52.423Z,50.12
2022-09-12T16:40:18.800Z,50.64
2022-09-12T16:42:46.101Z,51.70
2022-09-12T16:45:12.908Z,53.71
2022-09-12T16:47:39.603Z,52.76
2022-09-12T16:50:06.568Z,52.66
2022-09-12T16:52:35.835Z,52.17
2022-09-12T16:55:02.113Z,53.44
2022-09-12T16:57:28.379Z,52.70
2022-09-12T16:59:54.676Z,52.72
2022-09-12T17:02:21.024Z,52.63
2022-09-12T17:04:47.349Z,52.86
2022-09-12T17:07:13.623Z,53.39
2022-09-12T17:09:39.896Z,53.82
2022-09-12T17:12:06.418Z,54.19
2022-09-12T17:14:32.704Z,54.52
2022-09-12T17:16:58.994Z,54.39
2022-09-12T17:19:26.924Z,54.55
2022-09-12T17:21:53.485Z,54.43
2022-09-12T17:24:20.140Z,55.00
2022-09-12T17:26:46.536Z,55.06
2022-09-12T17:29:13.703Z,55.28
2022-09-12T17:31:41.189Z,55.30
2022-09-12T17:34:07.671Z,55.92
2022-09-12T17:36:33.958Z,56.07
2022-09-12T17:39:02.527Z,56.48
2022-09-12T17:41:29.997Z,56.76
2022-09-12T17:43:57.562Z,57.09
2022-09-12T17:46:26.252Z,57.40
2022-09-12T17:48:54.276Z,58.35
2022-09-12T17:51:22.256Z,58.69
2022-09-12T17:53:48.691Z,59.27
2022-09-12T17:56:15.087Z,59.63
2022-09-12T17:58:41.399Z,60.09
2022-09-12T18:01:12.427Z,60.02
2022-09-12T18:03:38.732Z,60.19
2022-09-12T18:06:05.159Z,60.54
2022-09-12T18:08:31.679Z,60.83
2022-09-12T18:11:04.120Z,60.85
2022-09-12T18:13:32.336Z,61.05
2022-09-12T18:16:04.063Z,61.31
2022-09-12T18:18:30.426Z,61.82
2022-09-12T18:20:56.707Z,61.69
2022-09-12T18:23:23.020Z,61.28
2022-09-12T18:25:49.311Z,61.67
2022-09-12T18:28:15.627Z,62.05
2022-09-12T18:30:41.928Z,62.63
2022-09-12T18:33:08.256Z,63.20
2022-09-12T18:35:37.822Z,63.31
2022-09-12T18:38:04.115Z,63.79
2022-09-12T18:40:30.419Z,63.86
2022-09-12T18:42:56.704Z,64.22
2022-09-12T18:45:23.025Z,64.77
2022-09-12T18:47:49.309Z,65.02
2022-09-12T18:50:15.602Z,65.07
2022-09-12T18:52:41.886Z,65.04
2022-09-12T18:55:08.643Z,65.63
2022-09-12T18:57:34.935Z,65.79
2022-09-12T19:00:01.995Z,65.89
2022-09-12T19:02:28.291Z,66.16
2022-09-12T19:04:54.598Z,66.35
2022-09-12T19:07:20.901Z,66.83
2022-09-12T19:09:47.208Z,67.25
2022-09-12T19:12:13.582Z,67.72
2022-09-12T19:14:39.864Z,67.48
2022-09-12T19:17:06.154Z,67.54
2022-09-12T19:19:32.542Z,67.76
2022-09-12T19:21:58.822Z,67.66
2022-09-12T19:24:25.235Z,67.43
2022-09-12T19:26:51.531Z,68.09
2022-09-12T19:29:18.353Z,68.71
2022-09-12T19:31:45.499Z,68.81
2022-09-12T19:34:12.623Z,69.28
2022-09-12T19:36:47.670Z,69.12
2022-09-12T19:39:15.663Z,69.14
2022-09-12T19:41:42.073Z,68.92
2022-09-12T19:44:08.756Z,68.82
2022-09-12T19:46:35.120Z,68.86
2022-09-12T19:49:01.450Z,69.35
2022-09-12T19:51:27.756Z,69.38
2022-09-12T19:53:54.120Z,69.05
2022-09-12T19:56:21.105Z,69.03
2022-09-12T19:58:53.510Z,68.84
2022-09-12T20:01:23.181Z,69.42
2022-09-12T20:03:50.532Z,69.26
2022-09-12T20:06:17.910Z,69.51
2022-09-12T20:08:44.941Z,69.06
2022-09-12T20:11:14.390Z,68.89
2022-09-12T20:13:40.998Z,69.21
2022-09-12T20:16:09.388Z,69.16
2022-09-12T20:18:35.994Z,69.32
2022-09-12T20:21:13.497Z,69.59
2022-09-12T20:23:40.046Z,69.16
2022-09-12T20:26:06.759Z,69.43
2022-09-12T20:28:33.147Z,69.60
2022-09-12T20:31:04.726Z,69.69
2022-09-12T20:33:31.404Z,69.98
2022-09-12T20:36:06.186Z,69.83
2022-09-12T20:38:32.462Z,70.72
2022-09-12T20:41:01.867Z,70.51
2022-09-12T20:43:28.157Z,70.97
2022-09-12T20:45:54.550Z,70.81
2022-09-12T20:48:20.901Z,71.19
2022-09-12T20:50:47.174Z,71.16
2022-09-12T20:53:14.499Z,70.90
2022-09-12T20:55:40.777Z,71.21
2022-09-12T20:58:07.075Z,71.11
2022-09-12T21:00:33.361Z,71.02
2022-09-12T21:02:59.655Z,71.07
2022-09-12T21:05:25.937Z,71.14
2022-09-12T21:07:52.243Z,71.33
2022-09-12T21:10:18.543Z,71.50
2022-09-12T21:12:44.840Z,71.38
2022-09-12T21:15:11.131Z,71.45
2022-09-12T21:17:37.422Z,71.19
2022-09-12T21:20:06.905Z,70.83
2022-09-12T21:22:35.587Z,70.85
2022-09-12T21:25:01.866Z,71.02
2022-09-12T21:27:28.168Z,71.11
2022-09-12T21:29:54.825Z,71.16
2022-09-12T21:32:21.475Z,71.14
2022-09-12T21:34:47.831Z,70.94
2022-09-12T21:37:14.147Z,71.71
2022-09-12T21:39:40.888Z,71.65
2022-09-12T21:42:07.539Z,71.61
2022-09-12T21:44:33.870Z,71.56
2022-09-12T21:47:00.179Z,71.44
2022-09-12T21:49:26.457Z,71.34
2022-09-12T21:51:52.755Z,71.27
2022-09-12T21:54:19.056Z,71.34
2022-09-12T21:56:45.349Z,71.37
2022-09-12T21:59:11.647Z,71.78
2022-09-12T22:01:38.028Z,72.16
2022-09-12T22:04:04.345Z,72.49
2022-09-12T22:06:30.622Z,72.29
2022-09-12T22:08:56.911Z,72.36
2022-09-12T22:11:23.193Z,72.47
2022-09-12T22:13:49.667Z,72.87
2022-09-12T22:16:16.133Z,73.06
2022-09-12T22:18:42.484Z,73.11
2022-09-12T22:21:12.825Z,73.86
2022-09-12T22:23:39.438Z,73.94
2022-09-12T22:26:05.782Z,74.04
2022-09-12T22:28:32.091Z,74.12
2022-09-12T22:30:58.431Z,74.00
2022-09-12T22:33:24.937Z,73.94
2022-09-12T22:35:51.292Z,74.22
2022-09-12T22:38:17.580Z,74.03
2022-09-12T22:40:43.864Z,73.92
2022-09-12T22:43:10.256Z,73.62
2022-09-12T22:45:36.597Z,73.77
2022-09-12T22:48:06.177Z,73.67
2022-09-12T22:50:35.281Z,74.09
2022-09-12T22:53:01.593Z,74.33
2022-09-12T22:55:27.913Z,73.98
2022-09-12T22:57:54.201Z,73.86
2022-09-12T23:00:20.525Z,73.64
2022-09-12T23:02:46.823Z,73.92
2022-09-12T23:05:13.122Z,73.92
2022-09-12T23:07:39.415Z,73.72
2022-09-12T23:10:06.171Z,73.72
2022-09-12T23:12:32.473Z,73.67
2022-09-12T23:14:59.142Z,73.79
2022-09-12T23:17:25.464Z,73.97
2022-09-12T23:19:51.745Z,73.96
2022-09-12T23:22:18.107Z,74.04
2022-09-12T23:24:44.396Z,74.02
2022-09-12T23:27:10.695Z,73.82
2022-09-12T23:29:36.992Z,73.95
2022-09-12T23:32:04.486Z,73.76
2022-09-12T23:34:30.823Z,73.85
2022-09-12T23:36:57.135Z,74.23
2022-09-12T23:39:23.433Z,73.98
2022-09-12T23:41:50.358Z,74.28
2022-09-12T23:44:16.753Z,74.08
2022-09-12T23:46:43.047Z,74.01
2022-09-12T23:49:09.329Z,73.82
2022-09-12T23:51:35.895Z,73.56
2022-09-12T23:54:02.277Z,73.33
2022-09-12T23:56:28.610Z,73.34
2022-09-12T23:58:54.936Z,73.55
